AirNav   Pilot Hours Calculator
 
 1063 users online  

08NC Whiteheart Farm Airport
Lewisville, North Carolina, USA

GOING TO LEWISVILLE?


FAA INFORMATION EFFECTIVE 01 DECEMBER 2022

Location

FAA Identifier: 08NC
Lat/Long: 36-04-03.4930N 080-27-56.2030W
36-04.058217N 080-27.936717W
36.0676369,-80.4656119
(estimated)
Elevation: 750 ft. / 229 m (estimated)
Variation: 06W (1990)
From city: 3 miles SW of LEWISVILLE, NC
Time zone: UTC -5 (UTC -4 during Daylight Saving Time)
Zip code: 27023

Airport Operations

Airport use: Private use. Permission required prior to landing
Activation date: 06/1993
Control tower: no
ARTCC: ATLANTA CENTER
FSS: RALEIGH FLIGHT SERVICE STATION
Attendance: UNATNDD
Wind indicator: yes
Segmented circle: no

Airport Communications

WX ASOS at INT (12 nm E): PHONE 336-661-3096
WX AWOS-3 at EXX (19 nm SE): 119.825 (336-956-2967)

Nearby radio navigation aids

VOR radial/distance  VOR name  Freq  Var
GSOr276/23.8GREENSBORO VORTAC116.2003W
BZMr078/39.5BARRETTS MOUNTAIN VOR/DME113.7506W

 
NDB name  Hdg/Dist  Freq  Var  ID
REENO276/14.531707WIN .. -.
SLAMMER248/38.942307WSIF ... .. ..-.

Airport Services

Runway Information

Runway 18/36

Dimensions: 3200 x 50 ft. / 975 x 15 m
Surface: turf
RUNWAY 18  RUNWAY 36
Traffic pattern: leftleft
Displaced threshold: 350 ft.no
Obstructions: 60 ft. treesnone

Airport Ownership and Management from official FAA records

Ownership: Privately-owned
Owner: WILLIAM. H. WHITEHEART
210 S CHERRY ST
WINSTON SALEM, NC 27101-5231
Phone 336-817-1555
Manager: WILLIAM. H. WHITEHEART
210 S CHERRY ST
WINSTON SALEM, NC 27101-5231
Phone 336-817-1555

Airport Operational Statistics

Aircraft based on the field: 1
Single engine airplanes: 1
    

Additional Remarks

FOR CD CTC ATLANTA ARTCC AT 770-210-7692.

Instrument Procedures

There are no published instrument procedures at 08NC.

Some nearby airports with instrument procedures:

8A7 - Twin Lakes Airport (9 nm S)
KINT - Smith Reynolds Airport (12 nm E)
KEXX - Davidson County Airport (19 nm SE)
KZEF - Elkin Municipal Airport (20 nm NW)
N63 - Meadow Brook Field Airport (21 nm NE)
 
Loc | Ops | Rwys | IFR | FBO | Links
Com | Nav | Svcs | Stats | Notes
Area around 08NC (Whiteheart Farm Airport)
 
Road maps at: MapQuest Bing Google
 
Aerial photo
No photo
 
Sectional chart

 
Airport distance calculator
Flying to Whiteheart Farm Airport? Find the distance to fly.

From to 08NC

Sunrise and sunset
Times for 06-Dec-2022
 Local
(UTC-5)
 Zulu
(UTC)
Morning civil twilight06:5111:51
Sunrise07:2012:20
Sunset17:0622:06
Evening civil twilight17:3522:35

Current date and time
Zulu (UTC)  07-Dec-2022 03:37:45
Local (UTC-5)  06-Dec-2022 22:37:45
 
METAR
KINT 
13nm E 
070317Z AUTO 00000KT 1 1/4SM BR OVC002 09/09 A3026 RMK AO2 T00940094
KEXX 
19nm SE 
070315Z AUTO 00000KT 3/4SM BR OVC002 09/09 A3025 RMK AO2 T00920092
KMWK 
24nm N 
070315Z AUTO 00000KT 2 1/2SM BR OVC007 07/07 A3027 RMK AO2 T00720070
KGSO 
25nm E 
070254Z 22005KT 1/4SM R05R/3500V4500FT BR VV002 10/09 A3023 RMK AO2 SFC VIS 3/4 SLP239 60001 T01000094 51002
KRUQ 
25nm S 
070315Z AUTO 00000KT 3/4SM BR OVC002 09/09 A3025 RMK AO2 T00860085
TAF
KINT 
13nm E 
061728Z 0618/0718 30003KT 1 1/2SM -RA BR OVC003 FM062200 VRB02KT 1 1/2SM BR OVC003 FM070400 VRB02KT 1/2SM FG OVC002
NOTAMs
Click for the latest NOTAMs
NOTAMs are issued by the DoD/FAA and will open in a separate window not controlled by AirNav.

 

 
 

Would you like to see your business listed on this page?

 If your business provides an interesting product or service to pilots, flight crews, aircraft, or users of the Whiteheart Farm Airport, you should consider listing it here.  To start the listing process, click on the button below
 
Add a business
 

Other Pages about Whiteheart Farm Airport

Update a link
 
Copyright © AirNav, LLC. All rights reserved. Privacy Policy  Contact